sensor_id;sensor_type;location;lat;lon;timestamp;temperature;humidity
5276;DHT22;2661;50.786;12.728;2022-12-29T00:01:21;7.80;99.90
5276;DHT22;2661;50.786;12.728;2022-12-29T00:03:48;7.80;99.90
5276;DHT22;2661;50.786;12.728;2022-12-29T00:06:15;7.80;99.90
5276;DHT22;2661;50.786;12.728;2022-12-29T00:08:41;8.00;99.90
5276;DHT22;2661;50.786;12.728;2022-12-29T00:11:09;8.10;99.90
5276;DHT22;2661;50.786;12.728;2022-12-29T00:13:36;8.10;99.90
5276;DHT22;2661;50.786;12.728;2022-12-29T00:16:26;8.30;99.90
5276;DHT22;2661;50.786;12.728;2022-12-29T00:18:53;8.40;99.90
5276;DHT22;2661;50.786;12.728;2022-12-29T00:21:21;8.40;99.90
5276;DHT22;2661;50.786;12.728;2022-12-29T00:24:09;8.50;99.90
5276;DHT22;2661;50.786;12.728;2022-12-29T00:27:03;8.50;99.90
5276;DHT22;2661;50.786;12.728;2022-12-29T00:29:53;8.50;99.90
5276;DHT22;2661;50.786;12.728;2022-12-29T00:32:39;8.40;99.90
5276;DHT22;2661;50.786;12.728;2022-12-29T00:35:37;8.30;99.90
5276;DHT22;2661;50.786;12.728;2022-12-29T00:38:04;8.30;99.90
5276;DHT22;2661;50.786;12.728;2022-12-29T00:40:50;8.20;99.90
5276;DHT22;2661;50.786;12.728;2022-12-29T00:43:35;8.30;99.90
5276;DHT22;2661;50.786;12.728;2022-12-29T00:46:20;8.30;99.90
5276;DHT22;2661;50.786;12.728;2022-12-29T00:48:47;8.40;99.90
5276;DHT22;2661;50.786;12.728;2022-12-29T00:51:32;8.40;99.90
5276;DHT22;2661;50.786;12.728;2022-12-29T00:53:59;8.40;99.90
5276;DHT22;2661;50.786;12.728;2022-12-29T00:56:26;8.40;99.90
5276;DHT22;2661;50.786;12.728;2022-12-29T00:58:52;8.40;99.90
5276;DHT22;2661;50.786;12.728;2022-12-29T01:01:19;8.50;99.90
5276;DHT22;2661;50.786;12.728;2022-12-29T01:03:45;8.50;99.90
5276;DHT22;2661;50.786;12.728;2022-12-29T01:06:12;8.50;99.90
5276;DHT22;2661;50.786;12.728;2022-12-29T01:08:39;8.40;99.90
5276;DHT22;2661;50.786;12.728;2022-12-29T01:11:07;8.40;99.90
5276;DHT22;2661;50.786;12.728;2022-12-29T01:13:34;8.40;99.90
5276;DHT22;2661;50.786;12.728;2022-12-29T01:16:01;8.40;99.90
5276;DHT22;2661;50.786;12.728;2022-12-29T01:18:28;8.50;99.90
5276;DHT22;2661;50.786;12.728;2022-12-29T01:20:58;8.50;99.90
5276;DHT22;2661;50.786;12.728;2022-12-29T01:23:25;8.50;99.90
5276;DHT22;2661;50.786;12.728;2022-12-29T01:25:51;8.50;99.90
5276;DHT22;2661;50.786;12.728;2022-12-29T01:28:18;8.50;99.90
5276;DHT22;2661;50.786;12.728;2022-12-29T01:30:51;8.50;99.90
5276;DHT22;2661;50.786;12.728;2022-12-29T01:33:17;8.50;99.90
5276;DHT22;2661;50.786;12.728;2022-12-29T01:35:44;8.50;99.90
5276;DHT22;2661;50.786;12.728;2022-12-29T01:38:11;8.60;99.90
5276;DHT22;2661;50.786;12.728;2022-12-29T01:40:42;8.60;99.90
5276;DHT22;2661;50.786;12.728;2022-12-29T01:43:10;8.60;99.90
5276;DHT22;2661;50.786;12.728;2022-12-29T01:45:41;8.60;99.90
5276;DHT22;2661;50.786;12.728;2022-12-29T01:48:09;8.60;99.90
5276;DHT22;2661;50.786;12.728;2022-12-29T01:50:40;8.50;99.90
5276;DHT22;2661;50.786;12.728;2022-12-29T01:53:09;8.50;99.90
5276;DHT22;2661;50.786;12.728;2022-12-29T01:55:42;8.50;99.90
5276;DHT22;2661;50.786;12.728;2022-12-29T01:58:09;8.60;99.90
5276;DHT22;2661;50.786;12.728;2022-12-29T02:00:37;8.60;99.90
5276;DHT22;2661;50.786;12.728;2022-12-29T02:03:04;8.60;99.90
5276;DHT22;2661;50.786;12.728;2022-12-29T02:05:43;8.60;99.90
5276;DHT22;2661;50.786;12.728;2022-12-29T02:08:12;8.60;99.90
5276;DHT22;2661;50.786;12.728;2022-12-29T02:10:39;8.70;99.90
5276;DHT22;2661;50.786;12.728;2022-12-29T02:13:06;8.70;99.90
5276;DHT22;2661;50.786;12.728;2022-12-29T02:15:44;8.70;99.90
5276;DHT22;2661;50.786;12.728;2022-12-29T02:18:16;8.70;99.90
5276;DHT22;2661;50.786;12.728;2022-12-29T02:23:18;8.70;99.90
5276;DHT22;2661;50.786;12.728;2022-12-29T02:36:07;8.70;99.90
5276;DHT22;2661;50.786;12.728;2022-12-29T02:41:05;8.80;99.90
5276;DHT22;2661;50.786;12.728;2022-12-29T02:43:35;8.80;99.90
5276;DHT22;2661;50.786;12.728;2022-12-29T02:46:47;8.80;99.90
5276;DHT22;2661;50.786;12.728;2022-12-29T02:48:55;8.80;99.90
5276;DHT22;2661;50.786;12.728;2022-12-29T02:51:25;8.80;99.90
5276;DHT22;2661;50.786;12.728;2022-12-29T02:53:52;8.80;99.90
5276;DHT22;2661;50.786;12.728;2022-12-29T02:56:38;8.90;99.90
5276;DHT22;2661;50.786;12.728;2022-12-29T02:59:05;8.90;99.90
5276;DHT22;2661;50.786;12.728;2022-12-29T03:01:51;8.90;99.90
5276;DHT22;2661;50.786;12.728;2022-12-29T03:04:51;9.00;99.90
5276;DHT22;2661;50.786;12.728;2022-12-29T03:09:57;8.90;99.90
5276;DHT22;2661;50.786;12.728;2022-12-29T03:12:30;9.00;99.90
5276;DHT22;2661;50.786;12.728;2022-12-29T03:15:53;9.00;99.90
5276;DHT22;2661;50.786;12.728;2022-12-29T03:18:41;9.00;99.90
5276;DHT22;2661;50.786;12.728;2022-12-29T03:24:19;9.10;99.90
5276;DHT22;2661;50.786;12.728;2022-12-29T03:26:47;9.10;99.90
5276;DHT22;2661;50.786;12.728;2022-12-29T03:29:14;9.10;99.90
5276;DHT22;2661;50.786;12.728;2022-12-29T03:31:41;9.00;99.90
5276;DHT22;2661;50.786;12.728;2022-12-29T03:34:09;9.00;99.90
5276;DHT22;2661;50.786;12.728;2022-12-29T03:36:40;9.00;99.90
5276;DHT22;2661;50.786;12.728;2022-12-29T03:39:09;9.10;99.90
5276;DHT22;2661;50.786;12.728;2022-12-29T03:41:39;9.10;99.90
5276;DHT22;2661;50.786;12.728;2022-12-29T03:44:06;9.10;99.90
5276;DHT22;2661;50.786;12.728;2022-12-29T03:46:33;9.10;99.90
5276;DHT22;2661;50.786;12.728;2022-12-29T03:49:00;9.10;99.90
5276;DHT22;2661;50.786;12.728;2022-12-29T03:51:26;9.10;99.90
5276;DHT22;2661;50.786;12.728;2022-12-29T03:53:53;9.10;99.90
5276;DHT22;2661;50.786;12.728;2022-12-29T03:56:19;9.20;99.90
5276;DHT22;2661;50.786;12.728;2022-12-29T03:58:46;9.10;99.90
5276;DHT22;2661;50.786;12.728;2022-12-29T04:01:12;9.20;99.90
5276;DHT22;2661;50.786;12.728;2022-12-29T04:03:39;9.10;99.90
5276;DHT22;2661;50.786;12.728;2022-12-29T04:06:06;9.10;99.90
5276;DHT22;2661;50.786;12.728;2022-12-29T04:08:33;9.10;99.90
5276;DHT22;2661;50.786;12.728;2022-12-29T04:11:00;9.10;99.90
5276;DHT22;2661;50.786;12.728;2022-12-29T04:13:27;9.10;99.90
5276;DHT22;2661;50.786;12.728;2022-12-29T04:15:53;9.10;99.90
5276;DHT22;2661;50.786;12.728;2022-12-29T04:18:20;9.10;99.90
5276;DHT22;2661;50.786;12.728;2022-12-29T04:20:46;9.10;99.90
5276;DHT22;2661;50.786;12.728;2022-12-29T04:23:30;9.10;99.90
5276;DHT22;2661;50.786;12.728;2022-12-29T04:25:56;9.10;99.90
5276;DHT22;2661;50.786;12.728;2022-12-29T04:28:23;9.00;99.90
5276;DHT22;2661;50.786;12.728;2022-12-29T04:30:50;9.00;99.90
5276;DHT22;2661;50.786;12.728;2022-12-29T04:33:17;9.00;99.90
5276;DHT22;2661;50.786;12.728;2022-12-29T04:35:44;9.00;99.90
5276;DHT22;2661;50.786;12.728;2022-12-29T04:38:11;9.00;99.90
5276;DHT22;2661;50.786;12.728;2022-12-29T04:40:38;8.90;99.90
5276;DHT22;2661;50.786;12.728;2022-12-29T04:43:06;8.90;99.90
5276;DHT22;2661;50.786;12.728;2022-12-29T04:45:32;8.90;99.90
5276;DHT22;2661;50.786;12.728;2022-12-29T04:48:00;8.90;99.90
5276;DHT22;2661;50.786;12.728;2022-12-29T04:50:26;8.90;99.90
5276;DHT22;2661;50.786;12.728;2022-12-29T04:52:53;8.90;99.90
5276;DHT22;2661;50.786;12.728;2022-12-29T04:55:19;8.90;99.90
5276;DHT22;2661;50.786;12.728;2022-12-29T04:57:46;8.90;99.90
5276;DHT22;2661;50.786;12.728;2022-12-29T05:00:12;8.90;99.90
5276;DHT22;2661;50.786;12.728;2022-12-29T05:02:39;9.00;99.90
5276;DHT22;2661;50.786;12.728;2022-12-29T05:05:06;9.00;99.90
5276;DHT22;2661;50.786;12.728;2022-12-29T05:07:33;9.00;99.90
5276;DHT22;2661;50.786;12.728;2022-12-29T05:10:00;9.00;99.90
5276;DHT22;2661;50.786;12.728;2022-12-29T05:12:29;9.00;99.90
5276;DHT22;2661;50.786;12.728;2022-12-29T05:14:55;9.10;99.90
5276;DHT22;2661;50.786;12.728;2022-12-29T05:17:22;9.10;99.90
5276;DHT22;2661;50.786;12.728;2022-12-29T05:19:49;9.00;99.90
5276;DHT22;2661;50.786;12.728;2022-12-29T05:22:15;9.00;99.90
5276;DHT22;2661;50.786;12.728;2022-12-29T05:24:43;8.90;99.90
5276;DHT22;2661;50.786;12.728;2022-12-29T05:27:10;8.90;99.90
5276;DHT22;2661;50.786;12.728;2022-12-29T05:29:36;8.80;99.90
5276;DHT22;2661;50.786;12.728;2022-12-29T05:32:03;8.90;99.90
5276;DHT22;2661;50.786;12.728;2022-12-29T05:34:30;9.00;99.90
5276;DHT22;2661;50.786;12.728;2022-12-29T05:36:56;9.00;99.90
5276;DHT22;2661;50.786;12.728;2022-12-29T05:39:23;8.90;99.90
5276;DHT22;2661;50.786;12.728;2022-12-29T05:41:49;8.90;99.90
5276;DHT22;2661;50.786;12.728;2022-12-29T05:44:16;8.90;99.90
5276;DHT22;2661;50.786;12.728;2022-12-29T05:46:43;9.00;99.90
5276;DHT22;2661;50.786;12.728;2022-12-29T05:49:10;8.90;99.90
5276;DHT22;2661;50.786;12.728;2022-12-29T05:51:36;8.80;99.90
5276;DHT22;2661;50.786;12.728;2022-12-29T05:54:03;8.90;99.90
5276;DHT22;2661;50.786;12.728;2022-12-29T05:56:30;8.90;99.90
5276;DHT22;2661;50.786;12.728;2022-12-29T05:58:56;8.90;99.90
5276;DHT22;2661;50.786;12.728;2022-12-29T06:01:23;8.90;99.90
5276;DHT22;2661;50.786;12.728;2022-12-29T06:03:49;8.90;99.90
5276;DHT22;2661;50.786;12.728;2022-12-29T06:06:16;8.90;99.90
5276;DHT22;2661;50.786;12.728;2022-12-29T06:08:43;8.80;99.90
5276;DHT22;2661;50.786;12.728;2022-12-29T06:11:09;8.80;99.90
5276;DHT22;2661;50.786;12.728;2022-12-29T06:13:36;8.80;99.90
5276;DHT22;2661;50.786;12.728;2022-12-29T06:16:03;8.80;99.90
5276;DHT22;2661;50.786;12.728;2022-12-29T06:18:29;8.90;99.90
5276;DHT22;2661;50.786;12.728;2022-12-29T06:21:03;8.90;99.90
5276;DHT22;2661;50.786;12.728;2022-12-29T06:23:30;8.90;99.90
5276;DHT22;2661;50.786;12.728;2022-12-29T06:25:57;9.00;99.90
5276;DHT22;2661;50.786;12.728;2022-12-29T06:28:23;9.00;99.90
5276;DHT22;2661;50.786;12.728;2022-12-29T06:30:50;9.00;99.90
5276;DHT22;2661;50.786;12.728;2022-12-29T06:33:16;9.10;99.90
5276;DHT22;2661;50.786;12.728;2022-12-29T06:35:43;9.10;99.90
5276;DHT22;2661;50.786;12.728;2022-12-29T06:38:10;9.10;99.90
5276;DHT22;2661;50.786;12.728;2022-12-29T06:40:36;9.10;99.90
5276;DHT22;2661;50.786;12.728;2022-12-29T06:43:03;9.10;99.90
5276;DHT22;2661;50.786;12.728;2022-12-29T06:45:29;9.20;99.90
5276;DHT22;2661;50.786;12.728;2022-12-29T06:47:57;9.20;99.90
5276;DHT22;2661;50.786;12.728;2022-12-29T06:50:23;9.20;99.90
5276;DHT22;2661;50.786;12.728;2022-12-29T06:52:50;9.20;99.90
5276;DHT22;2661;50.786;12.728;2022-12-29T06:55:17;9.20;99.90
5276;DHT22;2661;50.786;12.728;2022-12-29T06:57:43;9.30;99.90
5276;DHT22;2661;50.786;12.728;2022-12-29T07:00:10;9.20;99.90
5276;DHT22;2661;50.786;12.728;2022-12-29T07:02:36;9.20;99.90
5276;DHT22;2661;50.786;12.728;2022-12-29T07:05:03;9.10;99.90
5276;DHT22;2661;50.786;12.728;2022-12-29T07:07:30;9.10;99.90
5276;DHT22;2661;50.786;12.728;2022-12-29T07:09:56;9.00;99.90
5276;DHT22;2661;50.786;12.728;2022-12-29T07:12:23;8.90;99.90
5276;DHT22;2661;50.786;12.728;2022-12-29T07:14:50;8.80;99.90
5276;DHT22;2661;50.786;12.728;2022-12-29T07:17:16;8.80;99.90
5276;DHT22;2661;50.786;12.728;2022-12-29T07:19:44;8.80;99.90
5276;DHT22;2661;50.786;12.728;2022-12-29T07:22:11;8.80;99.90
5276;DHT22;2661;50.786;12.728;2022-12-29T07:24:37;8.80;99.90
5276;DHT22;2661;50.786;12.728;2022-12-29T07:27:04;8.80;99.90
5276;DHT22;2661;50.786;12.728;2022-12-29T07:29:31;8.80;99.90
5276;DHT22;2661;50.786;12.728;2022-12-29T07:31:57;8.90;99.90
5276;DHT22;2661;50.786;12.728;2022-12-29T07:34:24;9.00;99.90
5276;DHT22;2661;50.786;12.728;2022-12-29T07:36:51;8.90;99.90
5276;DHT22;2661;50.786;12.728;2022-12-29T07:39:17;8.90;99.90
5276;DHT22;2661;50.786;12.728;2022-12-29T07:41:44;8.90;99.90
5276;DHT22;2661;50.786;12.728;2022-12-29T07:44:10;8.90;99.90
5276;DHT22;2661;50.786;12.728;2022-12-29T07:46:37;8.80;99.90
5276;DHT22;2661;50.786;12.728;2022-12-29T07:49:22;8.80;99.90
5276;DHT22;2661;50.786;12.728;2022-12-29T07:51:48;8.90;99.90
5276;DHT22;2661;50.786;12.728;2022-12-29T07:54:15;8.80;99.90
5276;DHT22;2661;50.786;12.728;2022-12-29T07:56:44;8.80;99.90
5276;DHT22;2661;50.786;12.728;2022-12-29T07:59:11;8.80;99.90
5276;DHT22;2661;50.786;12.728;2022-12-29T08:01:38;8.90;99.90
5276;DHT22;2661;50.786;12.728;2022-12-29T08:04:05;9.00;99.90
5276;DHT22;2661;50.786;12.728;2022-12-29T08:06:32;9.00;99.90
5276;DHT22;2661;50.786;12.728;2022-12-29T08:08:58;9.10;99.90
5276;DHT22;2661;50.786;12.728;2022-12-29T08:11:37;9.10;99.90
5276;DHT22;2661;50.786;12.728;2022-12-29T08:14:04;9.10;99.90
5276;DHT22;2661;50.786;12.728;2022-12-29T08:16:31;9.10;99.90
5276;DHT22;2661;50.786;12.728;2022-12-29T08:18:58;9.20;99.90
5276;DHT22;2661;50.786;12.728;2022-12-29T08:21:26;9.20;99.90
5276;DHT22;2661;50.786;12.728;2022-12-29T08:23:53;9.20;99.90
5276;DHT22;2661;50.786;12.728;2022-12-29T08:26:20;9.20;99.90
5276;DHT22;2661;50.786;12.728;2022-12-29T08:28:46;9.10;99.90
5276;DHT22;2661;50.786;12.728;2022-12-29T08:31:13;9.10;99.90
5276;DHT22;2661;50.786;12.728;2022-12-29T08:33:39;9.20;99.90
5276;DHT22;2661;50.786;12.728;2022-12-29T08:36:06;9.30;99.90
5276;DHT22;2661;50.786;12.728;2022-12-29T08:38:33;9.30;99.90
5276;DHT22;2661;50.786;12.728;2022-12-29T08:40:59;9.20;99.90
5276;DHT22;2661;50.786;12.728;2022-12-29T08:43:30;9.30;99.90
5276;DHT22;2661;50.786;12.728;2022-12-29T08:45:59;9.30;99.90
5276;DHT22;2661;50.786;12.728;2022-12-29T08:48:26;9.30;99.90
5276;DHT22;2661;50.786;12.728;2022-12-29T08:50:53;9.30;99.90
5276;DHT22;2661;50.786;12.728;2022-12-29T08:53:19;9.40;99.90
5276;DHT22;2661;50.786;12.728;2022-12-29T08:55:46;9.40;99.90
5276;DHT22;2661;50.786;12.728;2022-12-29T08:58:13;9.50;99.90
5276;DHT22;2661;50.786;12.728;2022-12-29T09:00:41;9.50;99.90
5276;DHT22;2661;50.786;12.728;2022-12-29T09:03:08;9.60;99.90
5276;DHT22;2661;50.786;12.728;2022-12-29T09:05:35;9.60;99.90
5276;DHT22;2661;50.786;12.728;2022-12-29T09:08:02;9.60;99.90
5276;DHT22;2661;50.786;12.728;2022-12-29T09:10:29;9.60;99.90
5276;DHT22;2661;50.786;12.728;2022-12-29T09:12:55;9.50;99.90
5276;DHT22;2661;50.786;12.728;2022-12-29T09:15:22;9.70;99.90
5276;DHT22;2661;50.786;12.728;2022-12-29T09:17:48;9.70;99.90
5276;DHT22;2661;50.786;12.728;2022-12-29T09:20:16;9.80;99.90
5276;DHT22;2661;50.786;12.728;2022-12-29T09:22:44;9.80;99.90
5276;DHT22;2661;50.786;12.728;2022-12-29T09:25:11;9.90;99.90
5276;DHT22;2661;50.786;12.728;2022-12-29T09:27:38;9.80;99.90
5276;DHT22;2661;50.786;12.728;2022-12-29T09:30:05;9.90;99.90
5276;DHT22;2661;50.786;12.728;2022-12-29T09:32:33;9.90;99.90
5276;DHT22;2661;50.786;12.728;2022-12-29T09:35:04;10.00;99.90
5276;DHT22;2661;50.786;12.728;2022-12-29T09:37:31;10.00;99.90
5276;DHT22;2661;50.786;12.728;2022-12-29T09:39:57;10.20;99.90
5276;DHT22;2661;50.786;12.728;2022-12-29T09:47:39;10.40;99.90
5276;DHT22;2661;50.786;12.728;2022-12-29T09:52:37;10.40;99.90
5276;DHT22;2661;50.786;12.728;2022-12-29T09:55:19;10.40;99.90
5276;DHT22;2661;50.786;12.728;2022-12-29T09:57:57;10.40;99.90
5276;DHT22;2661;50.786;12.728;2022-12-29T10:00:32;10.40;99.90
5276;DHT22;2661;50.786;12.728;2022-12-29T10:03:02;10.30;99.90
5276;DHT22;2661;50.786;12.728;2022-12-29T10:15:55;10.40;99.90
5276;DHT22;2661;50.786;12.728;2022-12-29T10:18:27;10.50;99.90
5276;DHT22;2661;50.786;12.728;2022-12-29T10:23:38;10.50;99.90
5276;DHT22;2661;50.786;12.728;2022-12-29T10:26:10;10.40;99.90
5276;DHT22;2661;50.786;12.728;2022-12-29T10:31:58;10.50;99.90
5276;DHT22;2661;50.786;12.728;2022-12-29T10:34:12;10.60;99.90
5276;DHT22;2661;50.786;12.728;2022-12-29T10:36:44;10.90;99.90
5276;DHT22;2661;50.786;12.728;2022-12-29T10:39:20;11.10;99.90
5276;DHT22;2661;50.786;12.728;2022-12-29T10:41:57;11.10;99.90
5276;DHT22;2661;50.786;12.728;2022-12-29T10:44:26;11.20;99.90
5276;DHT22;2661;50.786;12.728;2022-12-29T10:46:57;11.20;99.90
5276;DHT22;2661;50.786;12.728;2022-12-29T10:49:25;11.10;99.90
5276;DHT22;2661;50.786;12.728;2022-12-29T10:51:54;11.10;99.90
5276;DHT22;2661;50.786;12.728;2022-12-29T10:54:22;11.10;99.90
5276;DHT22;2661;50.786;12.728;2022-12-29T10:56:50;11.10;99.90
5276;DHT22;2661;50.786;12.728;2022-12-29T10:59:25;11.00;99.90
5276;DHT22;2661;50.786;12.728;2022-12-29T11:04:28;11.10;99.90
5276;DHT22;2661;50.786;12.728;2022-12-29T11:06:59;11.10;99.90
5276;DHT22;2661;50.786;12.728;2022-12-29T11:09:28;11.10;99.90
5276;DHT22;2661;50.786;12.728;2022-12-29T11:14:44;11.10;99.90
5276;DHT22;2661;50.786;12.728;2022-12-29T11:17:14;11.00;99.90
5276;DHT22;2661;50.786;12.728;2022-12-29T11:19:41;11.10;99.90
5276;DHT22;2661;50.786;12.728;2022-12-29T11:22:18;11.10;99.90
5276;DHT22;2661;50.786;12.728;2022-12-29T11:24:47;11.10;99.90
5276;DHT22;2661;50.786;12.728;2022-12-29T11:27:15;11.00;99.90
5276;DHT22;2661;50.786;12.728;2022-12-29T11:29:43;11.00;99.90
5276;DHT22;2661;50.786;12.728;2022-12-29T11:32:23;11.00;99.90
5276;DHT22;2661;50.786;12.728;2022-12-29T11:34:55;10.90;99.90
5276;DHT22;2661;50.786;12.728;2022-12-29T11:37:32;10.90;99.90
5276;DHT22;2661;50.786;12.728;2022-12-29T11:40:34;10.90;99.90
5276;DHT22;2661;50.786;12.728;2022-12-29T11:42:55;10.90;99.90
5276;DHT22;2661;50.786;12.728;2022-12-29T11:45:25;10.90;99.90
5276;DHT22;2661;50.786;12.728;2022-12-29T11:47:53;10.90;99.90
5276;DHT22;2661;50.786;12.728;2022-12-29T11:50:26;10.90;99.90
5276;DHT22;2661;50.786;12.728;2022-12-29T11:53:00;10.90;99.90
5276;DHT22;2661;50.786;12.728;2022-12-29T11:55:28;10.90;99.90
5276;DHT22;2661;50.786;12.728;2022-12-29T11:57:56;11.00;99.90
5276;DHT22;2661;50.786;12.728;2022-12-29T12:00:24;11.10;99.90
5276;DHT22;2661;50.786;12.728;2022-12-29T12:02:56;11.10;99.90
5276;DHT22;2661;50.786;12.728;2022-12-29T12:05:26;11.20;99.90
5276;DHT22;2661;50.786;12.728;2022-12-29T12:07:56;11.30;99.90
5276;DHT22;2661;50.786;12.728;2022-12-29T12:10:24;11.40;99.90
5276;DHT22;2661;50.786;12.728;2022-12-29T12:12:58;11.40;99.90
5276;DHT22;2661;50.786;12.728;2022-12-29T12:15:36;11.40;99.90
5276;DHT22;2661;50.786;12.728;2022-12-29T12:20:57;11.40;99.90
5276;DHT22;2661;50.786;12.728;2022-12-29T12:26:15;11.50;99.90
5276;DHT22;2661;50.786;12.728;2022-12-29T12:31:32;11.60;99.90
5276;DHT22;2661;50.786;12.728;2022-12-29T12:34:03;11.70;99.90
5276;DHT22;2661;50.786;12.728;2022-12-29T12:41:56;11.70;99.90
5276;DHT22;2661;50.786;12.728;2022-12-29T12:44:47;11.70;99.90
5276;DHT22;2661;50.786;12.728;2022-12-29T12:47:20;11.70;99.90
5276;DHT22;2661;50.786;12.728;2022-12-29T12:52:57;11.50;99.90
5276;DHT22;2661;50.786;12.728;2022-12-29T13:00:32;11.30;99.90
5276;DHT22;2661;50.786;12.728;2022-12-29T13:03:10;11.30;99.90
5276;DHT22;2661;50.786;12.728;2022-12-29T13:08:25;11.30;99.90
5276;DHT22;2661;50.786;12.728;2022-12-29T13:10:57;11.30;99.90
5276;DHT22;2661;50.786;12.728;2022-12-29T13:19:09;11.30;99.90
5276;DHT22;2661;50.786;12.728;2022-12-29T13:27:38;11.20;99.90
5276;DHT22;2661;50.786;12.728;2022-12-29T13:30:09;11.20;99.90
5276;DHT22;2661;50.786;12.728;2022-12-29T13:32:48;11.20;99.90
5276;DHT22;2661;50.786;12.728;2022-12-29T13:38:00;11.10;99.90
5276;DHT22;2661;50.786;12.728;2022-12-29T13:40:28;11.10;99.90
5276;DHT22;2661;50.786;12.728;2022-12-29T13:43:00;11.10;99.90
5276;DHT22;2661;50.786;12.728;2022-12-29T13:45:28;11.10;99.90
5276;DHT22;2661;50.786;12.728;2022-12-29T13:50:29;11.10;99.90
5276;DHT22;2661;50.786;12.728;2022-12-29T13:55:28;11.10;99.90
5276;DHT22;2661;50.786;12.728;2022-12-29T14:06:39;10.90;99.90
5276;DHT22;2661;50.786;12.728;2022-12-29T14:09:00;11.00;99.90
5276;DHT22;2661;50.786;12.728;2022-12-29T14:11:35;10.90;99.90
5276;DHT22;2661;50.786;12.728;2022-12-29T14:14:11;10.90;99.90
5276;DHT22;2661;50.786;12.728;2022-12-29T14:16:38;10.90;99.90
5276;DHT22;2661;50.786;12.728;2022-12-29T14:19:09;10.80;99.90
5276;DHT22;2661;50.786;12.728;2022-12-29T14:21:37;10.70;99.90
5276;DHT22;2661;50.786;12.728;2022-12-29T14:26:50;10.50;99.90
5276;DHT22;2661;50.786;12.728;2022-12-29T14:31:55;10.30;99.90
5276;DHT22;2661;50.786;12.728;2022-12-29T14:34:27;10.20;99.90
5276;DHT22;2661;50.786;12.728;2022-12-29T14:36:54;10.10;99.90
5276;DHT22;2661;50.786;12.728;2022-12-29T14:47:49;9.90;99.90
5276;DHT22;2661;50.786;12.728;2022-12-29T14:50:15;9.90;99.90
5276;DHT22;2661;50.786;12.728;2022-12-29T14:57:52;9.90;99.90
5276;DHT22;2661;50.786;12.728;2022-12-29T15:00:23;10.00;99.90
5276;DHT22;2661;50.786;12.728;2022-12-29T15:03:05;10.00;99.90
5276;DHT22;2661;50.786;12.728;2022-12-29T15:05:35;10.00;99.90
5276;DHT22;2661;50.786;12.728;2022-12-29T15:08:03;10.00;99.90
5276;DHT22;2661;50.786;12.728;2022-12-29T15:10:34;10.00;99.90
5276;DHT22;2661;50.786;12.728;2022-12-29T15:13:03;9.90;99.90
5276;DHT22;2661;50.786;12.728;2022-12-29T15:15:35;9.90;99.90
5276;DHT22;2661;50.786;12.728;2022-12-29T15:21:05;9.90;99.90
5276;DHT22;2661;50.786;12.728;2022-12-29T15:23:32;9.90;99.90
5276;DHT22;2661;50.786;12.728;2022-12-29T15:28:27;9.80;99.90
5276;DHT22;2661;50.786;12.728;2022-12-29T15:30:55;9.80;99.90
5276;DHT22;2661;50.786;12.728;2022-12-29T15:33:23;9.80;99.90
5276;DHT22;2661;50.786;12.728;2022-12-29T15:35:51;9.70;99.90
5276;DHT22;2661;50.786;12.728;2022-12-29T15:38:25;9.70;99.90
5276;DHT22;2661;50.786;12.728;2022-12-29T15:41:02;9.60;99.90
5276;DHT22;2661;50.786;12.728;2022-12-29T15:46:14;9.60;99.90
5276;DHT22;2661;50.786;12.728;2022-12-29T15:48:41;9.60;99.90
5276;DHT22;2661;50.786;12.728;2022-12-29T15:51:16;9.60;99.90
5276;DHT22;2661;50.786;12.728;2022-12-29T15:53:46;9.60;99.90
5276;DHT22;2661;50.786;12.728;2022-12-29T15:56:13;9.60;99.90
5276;DHT22;2661;50.786;12.728;2022-12-29T15:58:41;9.70;99.90
5276;DHT22;2661;50.786;12.728;2022-12-29T16:03:57;9.70;99.90
5276;DHT22;2661;50.786;12.728;2022-12-29T16:06:26;9.80;99.90
5276;DHT22;2661;50.786;12.728;2022-12-29T16:09:06;9.70;99.90
5276;DHT22;2661;50.786;12.728;2022-12-29T16:14:00;9.50;99.90
5276;DHT22;2661;50.786;12.728;2022-12-29T16:16:30;9.60;99.90
5276;DHT22;2661;50.786;12.728;2022-12-29T16:18:58;9.50;99.90
5276;DHT22;2661;50.786;12.728;2022-12-29T16:21:28;9.50;99.90
5276;DHT22;2661;50.786;12.728;2022-12-29T16:23:57;9.50;99.90
5276;DHT22;2661;50.786;12.728;2022-12-29T16:26:26;9.60;99.90
5276;DHT22;2661;50.786;12.728;2022-12-29T16:29:01;9.60;99.90
5276;DHT22;2661;50.786;12.728;2022-12-29T16:31:35;9.60;99.90
5276;DHT22;2661;50.786;12.728;2022-12-29T16:34:12;9.60;99.90
5276;DHT22;2661;50.786;12.728;2022-12-29T16:36:53;9.60;99.90
5276;DHT22;2661;50.786;12.728;2022-12-29T16:41:50;9.70;99.90
5276;DHT22;2661;50.786;12.728;2022-12-29T16:44:17;9.70;99.90
5276;DHT22;2661;50.786;12.728;2022-12-29T16:46:55;9.50;99.90
5276;DHT22;2661;50.786;12.728;2022-12-29T16:49:23;9.50;99.90
5276;DHT22;2661;50.786;12.728;2022-12-29T16:51:49;9.40;99.90
5276;DHT22;2661;50.786;12.728;2022-12-29T16:54:19;9.30;99.90
5276;DHT22;2661;50.786;12.728;2022-12-29T16:56:46;9.20;99.90
5276;DHT22;2661;50.786;12.728;2022-12-29T16:59:23;9.00;99.90
5276;DHT22;2661;50.786;12.728;2022-12-29T17:01:51;9.00;99.90
5276;DHT22;2661;50.786;12.728;2022-12-29T17:04:18;9.00;99.90
5276;DHT22;2661;50.786;12.728;2022-12-29T17:06:45;8.90;99.90
5276;DHT22;2661;50.786;12.728;2022-12-29T17:09:19;8.80;99.90
5276;DHT22;2661;50.786;12.728;2022-12-29T17:11:46;8.70;99.90
5276;DHT22;2661;50.786;12.728;2022-12-29T17:17:03;8.50;99.90
5276;DHT22;2661;50.786;12.728;2022-12-29T17:19:35;8.40;99.90
5276;DHT22;2661;50.786;12.728;2022-12-29T17:22:02;8.30;99.90
5276;DHT22;2661;50.786;12.728;2022-12-29T17:24:30;8.20;99.90
5276;DHT22;2661;50.786;12.728;2022-12-29T17:26:57;8.20;99.90
5276;DHT22;2661;50.786;12.728;2022-12-29T17:31:54;8.10;99.90
5276;DHT22;2661;50.786;12.728;2022-12-29T17:34:21;8.00;99.90
5276;DHT22;2661;50.786;12.728;2022-12-29T17:36:48;8.10;99.90
5276;DHT22;2661;50.786;12.728;2022-12-29T17:39:14;8.10;99.90
5276;DHT22;2661;50.786;12.728;2022-12-29T17:41:41;8.20;99.90
5276;DHT22;2661;50.786;12.728;2022-12-29T17:44:08;8.20;99.90
5276;DHT22;2661;50.786;12.728;2022-12-29T17:46:40;8.20;99.90
5276;DHT22;2661;50.786;12.728;2022-12-29T17:49:11;8.10;99.90
5276;DHT22;2661;50.786;12.728;2022-12-29T17:51:37;8.10;99.90
5276;DHT22;2661;50.786;12.728;2022-12-29T17:54:04;8.00;99.90
5276;DHT22;2661;50.786;12.728;2022-12-29T17:56:31;8.00;99.90
5276;DHT22;2661;50.786;12.728;2022-12-29T17:58:57;8.00;99.90
5276;DHT22;2661;50.786;12.728;2022-12-29T18:01:25;7.90;99.90
5276;DHT22;2661;50.786;12.728;2022-12-29T18:03:59;7.90;99.90
5276;DHT22;2661;50.786;12.728;2022-12-29T18:06:26;7.90;99.90
5276;DHT22;2661;50.786;12.728;2022-12-29T18:08:52;7.90;99.90
5276;DHT22;2661;50.786;12.728;2022-12-29T18:11:24;8.00;99.90
5276;DHT22;2661;50.786;12.728;2022-12-29T18:13:52;8.00;99.90
5276;DHT22;2661;50.786;12.728;2022-12-29T18:16:19;8.00;99.90
5276;DHT22;2661;50.786;12.728;2022-12-29T18:18:46;8.10;99.90
5276;DHT22;2661;50.786;12.728;2022-12-29T18:21:14;8.20;99.90
5276;DHT22;2661;50.786;12.728;2022-12-29T18:23:41;8.40;99.90
5276;DHT22;2661;50.786;12.728;2022-12-29T18:26:15;8.50;99.90
5276;DHT22;2661;50.786;12.728;2022-12-29T18:28:50;8.50;99.90
5276;DHT22;2661;50.786;12.728;2022-12-29T18:31:20;8.60;99.90
5276;DHT22;2661;50.786;12.728;2022-12-29T18:33:50;8.70;99.90
5276;DHT22;2661;50.786;12.728;2022-12-29T18:36:17;8.80;99.90